Time;durP1;ratioP1;P1;durP2;ratioP2;P2;SDS_P1;SDS_P2;PMS_P1;PMS_P2;Temp;Humidity;BMP_temperature;BMP_pressure;BME280_temperature;BME280_humidity;BME280_pressure;Samples;Min_cycle;Max_cycle;Signal;HPM_P1;HPM_P2
2022/04/18 00:00:20;;;;;;;4.90;3.00;;;8.70;83.40;;;;;;5085769;28;20213;-86
2022/04/18 00:02:47;;;;;;;5.70;3.83;;;8.70;83.80;;;;;;5082753;28;21027;-85
2022/04/18 00:05:15;;;;;;;7.17;3.10;;;8.70;84.20;;;;;;5086270;28;20471;-86
2022/04/18 00:07:45;;;;;;;5.63;3.23;;;8.70;84.50;;;;;;5098420;28;20443;-87
2022/04/18 00:10:12;;;;;;;6.40;2.83;;;8.70;84.40;;;;;;5094352;28;20456;-88
2022/04/18 00:12:39;;;;;;;7.20;3.40;;;8.70;84.50;;;;;;5087938;28;20452;-87
2022/04/18 00:15:08;;;;;;;8.10;4.27;;;8.60;85.00;;;;;;5087454;28;20432;-86
2022/04/18 00:17:36;;;;;;;6.03;3.17;;;8.60;85.60;;;;;;5085246;28;20864;-88
2022/04/18 00:20:04;;;;;;;5.47;2.90;;;8.50;85.90;;;;;;5084829;28;20459;-87
2022/04/18 00:22:31;;;;;;;8.20;3.30;;;8.50;86.40;;;;;;5086650;28;20447;-85
2022/04/18 00:24:58;;;;;;;5.70;3.57;;;8.50;86.60;;;;;;5081286;28;20513;-85
2022/04/18 00:27:25;;;;;;;7.97;2.97;;;8.50;86.90;;;;;;5082916;28;20444;-88
2022/04/18 00:29:55;;;;;;;5.18;3.15;;;8.40;87.20;;;;;;5082489;28;20255;-87
2022/04/18 00:32:27;;;;;;;4.80;3.53;;;8.40;88.00;;;;;;5083285;28;20209;-87
2022/04/18 00:34:56;;;;;;;5.95;3.25;;;8.30;88.60;;;;;;5082935;28;20213;-87
2022/04/18 00:37:23;;;;;;;4.70;2.90;;;8.20;89.20;;;;;;5083306;28;20712;-86
2022/04/18 00:39:49;;;;;;;7.13;2.93;;;8.20;89.60;;;;;;5083362;28;20224;-86
2022/04/18 00:42:17;;;;;;;7.90;3.40;;;8.20;90.00;;;;;;5082857;28;20480;-87
2022/04/18 00:44:45;;;;;;;4.95;2.88;;;8.20;90.10;;;;;;5082545;28;20464;-85
2022/04/18 00:47:13;;;;;;;4.90;3.03;;;8.10;90.30;;;;;;5082773;28;20205;-85
2022/04/18 00:49:40;;;;;;;6.03;3.25;;;8.10;90.30;;;;;;5082253;28;20510;-86
2022/04/18 00:52:10;;;;;;;5.77;3.10;;;8.20;90.40;;;;;;5092944;28;20208;-85
2022/04/18 00:54:36;;;;;;;5.80;3.13;;;8.10;90.20;;;;;;5098750;28;20475;-83
2022/04/18 00:57:04;;;;;;;4.75;3.33;;;8.20;90.20;;;;;;5094252;28;20271;-85
2022/04/18 00:59:32;;;;;;;5.45;3.28;;;8.10;90.40;;;;;;5095600;28;20190;-86
2022/04/18 01:02:04;;;;;;;5.37;2.90;;;8.10;90.60;;;;;;5093480;28;20638;-85
2022/04/18 01:04:31;;;;;;;7.35;3.45;;;8.10;90.80;;;;;;5082606;28;20838;-86
2022/04/18 01:07:02;;;;;;;5.88;3.17;;;7.90;91.50;;;;;;5082397;28;20205;-87
2022/04/18 01:09:33;;;;;;;6.80;3.72;;;7.80;91.90;;;;;;5086237;28;20193;-87
2022/04/18 01:12:00;;;;;;;6.05;3.20;;;7.80;92.00;;;;;;5085831;28;20190;-87
2022/04/18 01:14:42;;;;;;;;;;;;;;;;;;;;;
2022/04/18 01:24:01;;;;;;;7.70;4.20;;;7.80;92.20;;;;;;4991462;28;20320;-86
2022/04/18 01:30:28;;;;;;;7.72;3.25;;;7.70;92.80;;;;;;4999591;28;20620;-86
2022/04/18 01:33:29;;;;;;;6.07;3.38;;;7.60;92.90;;;;;;5029338;22;20212;-86
2022/04/18 01:49:45;;;;;;;5.50;3.35;;;7.70;93.70;;;;;;4897371;29;20218;-85
2022/04/18 02:05:36;;;;;;;5.30;3.20;;;7.40;94.90;;;;;;4994518;28;20202;-85
2022/04/18 02:11:51;;;;;;;4.70;3.00;;;7.20;95.40;;;;;;5053059;28;20203;-83
2022/04/18 02:22:18;;;;;;;5.35;3.20;;;7.10;96.50;;;;;;4941762;29;20270;-85
2022/04/18 02:31:25;;;;;;;5.68;3.05;;;7.10;96.90;;;;;;4885173;29;20243;-84
2022/04/18 02:34:02;;;;;;;5.72;3.60;;;7.00;97.20;;;;;;4893129;28;20693;-84
2022/04/18 02:39:20;;;;;;;6.72;3.50;;;6.90;98.20;;;;;;4983937;28;20291;-83
2022/04/18 02:41:54;;;;;;;5.15;3.47;;;6.80;98.80;;;;;;4992351;28;20229;-86
2022/04/18 02:44:32;;;;;;;6.60;3.63;;;6.60;99.20;;;;;;5059558;28;20248;-85
2022/04/18 02:47:25;;;;;;;5.32;3.35;;;6.50;99.70;;;;;;5060604;28;20570;-85
2022/04/18 02:49:55;;;;;;;6.80;3.70;;;6.50;99.90;;;;;;5077320;28;20201;-83
2022/04/18 02:55:15;;;;;;;6.10;3.55;;;6.60;99.90;;;;;;5128015;22;20265;-83
2022/04/18 02:57:53;;;;;;;6.45;2.95;;;6.60;99.90;;;;;;5108994;28;20220;-84
2022/04/18 03:00:53;;;;;;;5.10;3.03;;;6.60;99.90;;;;;;5106631;28;20280;-85
2022/04/18 03:03:58;;;;;;;;;;;;;;;;;;;;;
2022/04/18 03:07:03;;;;;;;8.15;3.20;;;6.50;99.90;;;;;;5100293;28;20287;-85
2022/04/18 03:09:51;;;;;;;5.85;3.17;;;6.50;99.90;;;;;;5080774;28;20228;-86
2022/04/18 03:13:09;;;;;;;6.07;3.63;;;6.40;99.90;;;;;;5104140;28;20203;-86
2022/04/18 03:16:27;;;;;;;8.50;3.30;;;6.40;99.90;;;;;;4981308;28;20209;-85
2022/04/18 03:22:35;;;;;;;7.47;3.33;;;6.40;99.90;;;;;;4961918;29;20209;-86
2022/04/18 03:41:55;;;;;;;;;;;;;;;;;;;;;
2022/04/18 03:47:41;;;;;;;5.60;3.47;;;6.00;99.90;;;;;;5100570;28;20705;-85
2022/04/18 03:56:43;;;;;;;5.75;2.95;;;6.10;99.90;;;;;;5075930;28;20214;-86
2022/04/18 03:59:32;;;;;;;5.07;3.22;;;6.00;99.90;;;;;;5102177;28;20231;-85
2022/04/18 04:02:38;;;;;;;5.30;3.33;;;5.90;99.90;;;;;;5112068;28;20281;-85
2022/04/18 04:05:11;;;;;;;5.38;3.80;;;6.10;99.90;;;;;;5037932;28;20261;-86
2022/04/18 04:08:18;;;;;;;5.60;3.70;;;6.00;99.90;;;;;;5103258;28;20216;-85
2022/04/18 04:15:23;;;;;;;4.82;3.17;;;5.90;99.90;;;;;;5025478;28;20322;-85
2022/04/18 04:21:27;;;;;;;6.45;3.42;;;5.80;99.90;;;;;;4977437;28;20222;-85
2022/04/18 04:24:22;;;;;;;5.05;3.20;;;5.90;99.90;;;;;;5035591;28;20238;-86
2022/04/18 04:27:20;;;;;;;8.52;3.92;;;5.90;99.90;;;;;;5116106;28;20231;-83
2022/04/18 04:29:58;;;;;;;6.90;3.53;;;5.80;99.90;;;;;;5117248;28;20227;-85
2022/04/18 04:39:11;;;;;;;6.15;3.85;;;5.60;99.90;;;;;;5029937;28;20230;-85
2022/04/18 04:41:47;;;;;;;6.80;3.70;;;5.60;99.90;;;;;;5105701;28;20204;-85
2022/04/18 04:44:38;;;;;;;6.82;3.90;;;5.70;99.90;;;;;;5105390;28;20259;-85
2022/04/18 04:47:06;;;;;;;6.53;4.22;;;5.60;99.90;;;;;;5104894;28;20204;-84
2022/04/18 04:50:07;;;;;;;8.32;4.30;;;5.60;99.90;;;;;;5104487;28;20201;-85
2022/04/18 04:52:34;;;;;;;5.78;3.72;;;5.60;99.90;;;;;;5104299;28;20591;-83
2022/04/18 04:55:20;;;;;;;6.13;3.70;;;5.50;99.90;;;;;;5112570;28;20237;-83
2022/04/18 04:58:18;;;;;;;6.57;3.65;;;5.50;99.90;;;;;;5109180;28;20213;-86
2022/04/18 05:10:15;;;;;;;8.07;3.95;;;5.40;99.90;;;;;;5102561;28;20198;-85
2022/04/18 05:13:19;;;;;;;5.88;3.60;;;5.50;99.90;;;;;;5101510;28;20640;-84
2022/04/18 05:19:01;;;;;;;8.18;4.40;;;5.30;99.90;;;;;;5098979;28;20248;-84
2022/04/18 05:21:49;;;;;;;6.07;3.78;;;5.70;99.90;;;;;;5100789;28;20235;-85
2022/04/18 05:28:39;;;;;;;;;;;;;;;;;;;;;
2022/04/18 05:35:16;;;;;;;6.35;3.88;;;5.80;99.90;;;;;;5052917;28;20712;-86
2022/04/18 05:41:41;;;;;;;6.00;3.60;;;5.80;99.90;;;;;;5036874;28;20199;-85
2022/04/18 07:15:26;;;;;;;6.20;4.57;;;9.70;93.60;;;;;;5080668;28;20490;-87
2022/04/18 07:18:04;;;;;;;7.20;5.33;;;9.80;93.50;;;;;;5083564;28;20765;-87
2022/04/18 07:20:33;;;;;;;8.50;4.83;;;9.80;93.20;;;;;;5081552;28;20778;-87
2022/04/18 07:23:03;;;;;;;8.80;4.87;;;9.90;93.00;;;;;;5085786;28;20458;-85
2022/04/18 07:25:30;;;;;;;8.63;5.47;;;10.00;92.20;;;;;;5083414;28;20462;-88
2022/04/18 07:28:11;;;;;;;6.90;5.10;;;10.10;92.30;;;;;;5089938;28;20452;-88
2022/04/18 07:31:24;;;;;;;9.40;5.47;;;10.20;91.90;;;;;;5092192;28;20536;-87
2022/04/18 07:34:09;;;;;;;8.57;5.37;;;10.40;91.70;;;;;;5086274;28;20522;-88
2022/04/18 07:36:36;;;;;;;8.30;5.10;;;10.40;91.70;;;;;;5089649;28;20455;-88
2022/04/18 07:39:04;;;;;;;6.23;4.90;;;10.50;91.70;;;;;;5087219;28;20600;-88
2022/04/18 07:41:43;;;;;;;6.97;4.60;;;10.60;91.10;;;;;;5085967;28;21005;-84
2022/04/18 07:44:16;;;;;;;8.47;4.37;;;10.70;90.50;;;;;;5086088;28;20475;-85
2022/04/18 07:46:44;;;;;;;6.80;4.60;;;10.70;90.20;;;;;;5085377;28;20471;-86
2022/04/18 07:49:32;;;;;;;7.00;4.67;;;10.80;90.20;;;;;;5083956;28;20478;-85
2022/04/18 07:52:06;;;;;;;7.30;4.40;;;11.00;89.60;;;;;;5086792;28;20470;-87
2022/04/18 07:55:14;;;;;;;4.90;3.50;;;11.10;88.60;;;;;;5088663;28;20453;-86
2022/04/18 07:57:58;;;;;;;7.87;5.27;;;11.20;84.00;;;;;;5087387;28;20446;-87
2022/04/18 08:03:17;;;;;;;7.53;3.80;;;11.50;79.90;;;;;;5089681;28;20435;-84
2022/04/18 08:06:35;;;;;;;7.63;3.70;;;11.60;79.30;;;;;;5096458;28;20458;-86
2022/04/18 08:09:54;;;;;;;;;;;;;;;;;;;;;
2022/04/18 08:12:42;;;;;;;7.43;4.30;;;11.70;77.30;;;;;;5085423;28;20800;-86
2022/04/18 08:15:21;;;;;;;7.00;4.30;;;11.60;76.90;;;;;;5085612;28;20494;-85
2022/04/18 08:20:51;;;;;;;7.00;4.07;;;11.80;78.30;;;;;;5084751;28;20491;-87
2022/04/18 08:23:22;;;;;;;7.30;4.40;;;11.90;79.30;;;;;;5084900;28;21017;-86
2022/04/18 08:26:09;;;;;;;7.80;4.30;;;12.00;80.00;;;;;;5084687;28;20502;-86
2022/04/18 08:28:45;;;;;;;6.13;4.33;;;12.20;79.60;;;;;;5083576;28;20462;-86
2022/04/18 08:31:14;;;;;;;6.97;4.57;;;12.30;78.80;;;;;;5083788;28;20523;-85
2022/04/18 08:33:41;;;;;;;11.90;4.70;;;12.20;78.30;;;;;;5081936;28;20479;-85
2022/04/18 08:36:17;;;;;;;7.63;4.30;;;12.40;78.20;;;;;;5084362;28;20517;-87
2022/04/18 08:38:51;;;;;;;6.90;4.00;;;12.50;78.20;;;;;;5084797;28;20783;-86
2022/04/18 08:42:00;;;;;;;5.83;4.30;;;12.60;78.10;;;;;;5085843;28;20449;-85
2022/04/18 08:44:54;;;;;;;5.03;3.73;;;12.60;77.40;;;;;;5082995;28;20563;-85
2022/04/18 08:53:59;;;;;;;6.30;4.23;;;12.30;77.80;;;;;;5092839;28;20435;-87
2022/04/18 08:56:27;;;;;;;6.37;3.40;;;12.40;78.30;;;;;;5097286;28;20428;-85
2022/04/18 08:58:58;;;;;;;6.40;4.50;;;12.40;77.50;;;;;;5088968;28;20580;-85
2022/04/18 09:01:59;;;;;;;7.90;4.07;;;12.50;78.00;;;;;;5096249;28;20437;-87
2022/04/18 09:04:57;;;;;;;6.70;3.53;;;12.70;77.50;;;;;;5075277;28;20907;-84
2022/04/18 09:07:27;;;;;;;7.03;4.00;;;12.80;76.80;;;;;;5085058;28;20452;-86
2022/04/18 09:10:09;;;;;;;6.13;4.27;;;12.80;76.50;;;;;;5086155;28;20447;-86
2022/04/18 09:13:03;;;;;;;10.57;4.23;;;13.00;75.40;;;;;;5084932;28;20441;-87
2022/04/18 09:16:07;;;;;;;5.33;3.40;;;13.20;74.10;;;;;;5084194;28;20527;-86
2022/04/18 09:22:00;;;;;;;6.63;4.40;;;13.30;72.50;;;;;;5023470;28;20428;-86
2022/04/18 09:33:45;;;;;;;5.37;3.57;;;13.40;71.90;;;;;;5080235;28;20469;-86
2022/04/18 09:39:55;;;;;;;6.17;3.80;;;13.50;70.20;;;;;;5078924;28;20454;-86
2022/04/18 09:45:43;;;;;;;6.30;3.90;;;13.90;69.20;;;;;;5078295;28;20460;-87
2022/04/18 09:48:43;;;;;;;6.00;3.57;;;14.00;67.50;;;;;;5083319;28;20521;-87
2022/04/18 09:58:01;;;;;;;5.23;3.97;;;13.80;67.90;;;;;;5075238;28;20461;-86
2022/04/18 10:04:36;;;;;;;4.60;2.63;;;13.90;68.20;;;;;;4992132;28;20464;-87
2022/04/18 10:11:37;;;;;;;6.90;4.10;;;14.10;66.40;;;;;;4962437;28;20451;-85
2022/04/18 10:14:20;;;;;;;6.37;3.70;;;14.50;64.60;;;;;;4981761;28;20498;-86
2022/04/18 10:27:37;;;;;;;6.83;3.90;;;14.70;64.10;;;;;;4940788;29;20530;-86
2022/04/18 10:47:16;;;;;;;6.83;3.20;;;15.20;60.70;;;;;;5089061;28;20949;-88
2022/04/18 10:50:22;;;;;;;6.60;4.00;;;15.00;60.30;;;;;;5086260;28;20443;-88
2022/04/18 10:53:35;;;;;;;7.10;3.90;;;14.80;61.00;;;;;;5065670;28;20457;-88
2022/04/18 11:03:54;;;;;;;6.23;3.70;;;15.30;60.50;;;;;;4957524;28;20829;-85
2022/04/18 11:18:10;;;;;;;6.80;3.60;;;15.60;59.00;;;;;;5039011;28;20887;-87
2022/04/18 16:14:43;;;;;;;6.03;2.50;;;18.20;48.20;;;;;;5038161;28;20473;-89
2022/04/18 17:05:48;;;;;;;5.20;2.50;;;17.20;51.30;;;;;;4936602;28;20481;-84
2022/04/18 17:50:14;;;;;;;6.40;3.40;;;16.80;51.70;;;;;;4867736;29;20463;-87
2022/04/18 21:13:35;;;;;;;5.73;3.10;;;12.30;79.00;;;;;;5083517;28;20464;-88
2022/04/18 21:16:13;;;;;;;6.30;3.07;;;12.30;79.70;;;;;;5087138;28;20493;-90
2022/04/18 21:22:09;;;;;;;5.40;3.10;;;12.00;80.30;;;;;;4984180;28;20911;-85
2022/04/18 21:27:54;;;;;;;5.37;3.23;;;11.90;81.50;;;;;;5094386;28;20463;-90
2022/04/18 21:30:47;;;;;;;6.60;4.20;;;11.90;81.90;;;;;;5093500;28;20444;-86
2022/04/18 21:33:24;;;;;;;7.90;4.00;;;11.90;82.50;;;;;;5097782;28;20443;-88
2022/04/18 21:36:10;;;;;;;5.13;3.53;;;11.90;82.90;;;;;;5090908;28;20436;-89
2022/04/18 21:38:52;;;;;;;5.47;3.50;;;11.80;83.30;;;;;;5086089;28;20538;-87
2022/04/18 21:41:30;;;;;;;6.83;4.47;;;11.80;83.80;;;;;;5088021;28;20491;-86
2022/04/18 21:47:19;;;;;;;9.13;3.90;;;11.60;85.00;;;;;;5089136;22;20426;-87
2022/04/18 21:49:59;;;;;;;8.10;3.67;;;11.60;85.20;;;;;;5105362;28;20459;-88
2022/04/18 21:52:27;;;;;;;5.97;2.97;;;11.60;85.50;;;;;;5102312;28;20419;-87
2022/04/18 21:54:57;;;;;;;5.87;3.23;;;11.50;85.90;;;;;;5104090;28;20434;-87
2022/04/18 21:57:35;;;;;;;5.00;3.00;;;11.40;86.50;;;;;;5108063;28;20546;-88
2022/04/18 22:00:07;;;;;;;7.27;3.20;;;11.40;87.00;;;;;;5109967;28;20495;-88
2022/04/18 22:05:21;;;;;;;5.50;3.60;;;11.30;87.70;;;;;;5102027;28;20439;-87
2022/04/18 22:07:55;;;;;;;6.33;3.30;;;11.30;88.20;;;;;;5105092;28;20470;-88
2022/04/18 22:10:25;;;;;;;6.20;3.30;;;11.30;88.50;;;;;;5112605;28;20429;-88
2022/04/18 22:13:03;;;;;;;9.07;3.73;;;11.30;89.00;;;;;;5111590;28;20888;-88
2022/04/18 22:15:51;;;;;;;8.73;3.73;;;11.20;89.50;;;;;;5105427;28;20439;-88
2022/04/18 22:18:20;;;;;;;5.83;3.50;;;11.20;90.00;;;;;;5113682;28;20497;-88
2022/04/18 22:26:29;;;;;;;6.70;3.53;;;10.90;91.00;;;;;;5085980;28;20431;-88
2022/04/18 22:28:59;;;;;;;9.43;3.60;;;10.80;91.20;;;;;;5106158;28;20471;-88
2022/04/18 22:31:30;;;;;;;6.77;3.80;;;10.70;91.60;;;;;;5104180;28;20431;-88
2022/04/18 22:34:08;;;;;;;6.40;3.20;;;10.70;91.80;;;;;;5103566;28;20457;-88
2022/04/18 22:39:20;;;;;;;7.70;3.93;;;10.50;92.50;;;;;;5100054;28;20465;-88
2022/04/18 22:41:53;;;;;;;7.37;3.47;;;10.50;92.80;;;;;;5111496;28;20481;-86
2022/04/18 22:44:28;;;;;;;6.77;3.27;;;10.50;93.10;;;;;;5105782;28;20446;-86
2022/04/18 22:46:55;;;;;;;4.90;3.00;;;10.40;93.10;;;;;;5100722;28;20480;-86
2022/04/18 22:49:22;;;;;;;7.27;3.30;;;10.30;93.60;;;;;;5101470;28;20802;-87
2022/04/18 22:51:49;;;;;;;7.23;3.00;;;10.30;93.60;;;;;;5102088;28;20455;-85
2022/04/18 22:54:16;;;;;;;7.77;3.50;;;10.20;93.70;;;;;;5101439;28;20427;-85
2022/04/18 22:56:43;;;;;;;10.80;3.17;;;10.30;93.90;;;;;;5103608;28;20450;-87
2022/04/18 22:59:16;;;;;;;6.23;3.90;;;10.20;94.10;;;;;;5099948;28;20486;-87
2022/04/18 23:01:53;;;;;;;5.00;2.80;;;10.20;94.20;;;;;;5106896;28;20463;-87
2022/04/18 23:04:24;;;;;;;5.77;3.33;;;10.20;94.60;;;;;;5112252;28;20448;-87
2022/04/18 23:06:56;;;;;;;4.70;2.93;;;10.20;94.70;;;;;;5113161;28;20430;-86
2022/04/18 23:09:31;;;;;;;5.53;3.13;;;10.10;95.10;;;;;;5108273;28;20461;-87
2022/04/18 23:12:15;;;;;;;6.87;3.33;;;10.10;95.10;;;;;;5108779;28;20449;-87
2022/04/18 23:14:42;;;;;;;6.03;3.00;;;10.10;95.20;;;;;;5101155;28;20439;-87
2022/04/18 23:17:11;;;;;;;6.47;2.97;;;10.10;95.30;;;;;;5101627;28;20545;-86
2022/04/18 23:19:38;;;;;;;5.40;3.10;;;10.00;95.50;;;;;;5100490;28;20531;-86
2022/04/18 23:22:05;;;;;;;5.53;3.20;;;9.90;96.40;;;;;;5101080;28;20478;-86
2022/04/18 23:24:32;;;;;;;7.63;3.80;;;9.90;96.70;;;;;;5101745;28;20459;-87
2022/04/18 23:26:59;;;;;;;5.27;3.33;;;9.90;96.70;;;;;;5101836;28;20456;-86
2022/04/18 23:29:26;;;;;;;5.30;2.97;;;9.80;97.00;;;;;;5105189;28;20539;-86
2022/04/18 23:31:55;;;;;;;6.37;2.93;;;9.80;97.40;;;;;;5107531;28;20453;-87
2022/04/18 23:34:24;;;;;;;4.70;3.00;;;9.80;97.50;;;;;;5104369;28;20493;-87
2022/04/18 23:36:51;;;;;;;7.03;3.60;;;9.70;97.80;;;;;;5104518;28;20447;-87
2022/04/18 23:39:18;;;;;;;5.50;2.97;;;9.80;97.90;;;;;;5104500;28;20505;-87
2022/04/18 23:41:47;;;;;;;6.30;3.30;;;9.70;98.20;;;;;;5103471;28;21026;-87
2022/04/18 23:44:14;;;;;;;7.23;3.83;;;9.80;98.20;;;;;;5104263;28;20531;-88
2022/04/18 23:46:41;;;;;;;5.60;2.93;;;9.80;98.20;;;;;;5104760;28;20443;-87
2022/04/18 23:49:08;;;;;;;6.20;3.03;;;9.70;98.30;;;;;;5104624;28;20490;-87
2022/04/18 23:51:37;;;;;;;6.17;3.03;;;9.80;98.50;;;;;;5116156;28;20461;-86
2022/04/18 23:54:04;;;;;;;6.53;3.40;;;9.60;98.60;;;;;;5114250;28;20922;-87
2022/04/18 23:56:31;;;;;;;5.33;3.50;;;9.60;98.70;;;;;;5109560;28;20542;-87
2022/04/18 23:58:59;;;;;;;4.70;2.93;;;9.60;98.60;;;;;;5110660;28;20474;-87
